Terminal Aerodrome Forecast
Issued by NWS

Home | Current Version | Previous Version | Text Only | Print | Product List | Glossary On
Versions: 1 2 3 4 5 6 7 8 9 10 11 12 13 14 15 16 17 18
000
FTUS42 KFFC 261953 AAA
TAFPDK
TAF AMD
KPDK 261953Z 2620/2718 12007KT 5SM -SHRA FEW008 SCT025 OVC050
      TEMPO 2623/2702 3SM -TSRA SCT007 BKN025CB
     FM270200 23005KT 6SM -SHRA SCT020 OVC040
     FM270400 26004KT P6SM VCSH BKN025
     FM270800 29004KT 5SM BR OVC008
     FM271200 31007KT P6SM FEW008 OVC015
     FM271500 32010KT P6SM SCT012 SCT035=

USA.gov is the U.S. government's official web portal to all federal, state and local government web resources and services.